Elizabeth, Illinois
Current Conditions -  °F | °C
As of 9:55 PM on Friday 24 Oct 2014 (Local Time) from KSFY Reporting Station
Overcast Overcast  
Wind Chill: 62°   Ceiling: 4000
Heat Index: 62°   Visibility: 10mi
Dew Point: 56°   Wind: 8mph
Humidity: 81%   Direction: 250°WSW
Pressure: 29.94"   Gusts: NA
Location:  42.32°N, 90.22°W
Report Text: KSFY 250255Z AUTO 25007KT 10SM OVC040 17/14 A2994 RMK AO2 T01670135
Loading
Personal Weather Stations






























Interactive Weather Map
Tropical Storm Tracking
New forecast layout! Learn more

10-Day Weather Forecast

Advertisements
Track Severe Weather on mobile